Flight Track Log - Related Links

Times and Time Zones

All times are in EDT time to prevent confusion due to time zone crossing. See the AAL1459 flight status page for this flight to view local times or setup timezone preferences in your user account.

Time Position Orientation Groundspeed Altitude Reporting Facility
EDT Latitude Longitude Course Direction KTS MPH feet Rate Location/Type
Wed 10:13:57 PM 41.9430 -87.9150 189° South 171 197 2,200  Level FlightAware
Wed 10:14:07 PM 41.9400 -87.9250 248° West 179 206 2,500 1,500 Climbing FlightAware
Wed 10:14:37 PM 41.9370 -87.9650 264° West 231 266 3,200 1,920 Climbing FlightAware
Wed 10:14:57 PM 41.9360 -87.9950 267° West 252 290 4,100 2,550 Climbing FlightAware
Wed 10:15:17 PM 41.9430 -88.0250 287° West 269 310 4,900 2,400 Climbing FlightAware
Wed 10:15:32 PM 41.9540 -88.0410 313° West 272 313 5,500 2,400 Climbing FlightAware
Wed 10:15:57 PM 41.9810 -88.0720 320° Northwest 300 345 6,500 2,836 Climbing FlightAware
Wed 10:16:27 PM 42.0110 -88.1060 320° Northwest 302 348 8,100 3,400 Climbing FlightAware
Wed 10:16:57 PM 42.0440 -88.1420 321° Northwest 298 343 9,900 3,500 Climbing FlightAware
Wed 10:17:27 PM 42.0660 -88.1890 302° West 288 331 11,600 3,300 Climbing FlightAware
Wed 10:17:37 PM 42.0680 -88.2070 279° West 282 325 12,100 3,164 Climbing FlightAware
Wed 10:18:22 PM 42.0710 -88.2860 273° West 280 322 14,500 2,541 Climbing FlightAware
Wed 10:19:02 PM 42.0760 -88.3550 276° West 305 351 15,700 1,829 Climbing FlightAware
Wed 10:20:07 PM 42.0780 -88.4820 271° West 335 386 17,700 2,073 Climbing FlightAware
Wed 10:20:52 PM 42.0770 -88.5860 269° West 345 397 19,500 2,467 Climbing FlightAware
Wed 10:21:37 PM 42.0740 -88.6820 268° West 346 398 21,400 2,400 Climbing FlightAware
Wed 10:22:17 PM 42.0700 -88.7670 266° West 348 400 22,900 2,047 Climbing FlightAware
Wed 10:23:02 PM 42.0670 -88.8650 268° West 356 410 24,300 1,765 Climbing FlightAware
Wed 10:23:42 PM 42.0640 -88.9560 267° West 366 421 25,400 1,575 Climbing FlightAware
Wed 10:24:22 PM 42.0620 -89.0480 268° West 375 432 26,400 1,482 Climbing FlightAware
Wed 10:25:07 PM 42.0590 -89.1520 268° West 383 441 27,500 1,482 Climbing FlightAware
Wed 10:25:47 PM 42.0570 -89.2530 269° West 390 449 28,500 1,482 Climbing FlightAware
Wed 10:26:32 PM 42.0540 -89.3620 268° West 393 452 29,600 1,482 Climbing FlightAware
Wed 10:27:12 PM 42.0520 -89.4590 268° West 396 456 30,600 1,425 Climbing FlightAware
Wed 10:27:52 PM 42.0490 -89.5590 268° West 396 456 31,500 1,600 Climbing FlightAware
Wed 10:28:27 PM 42.0480 -89.6400 269° West 389 448 32,600 1,694 Climbing FlightAware
Wed 10:29:17 PM 42.0580 -89.7600 276° West 390 449 33,900 1,326 Climbing FlightAware
Wed 10:30:02 PM 42.0730 -89.8650 281° West 392 451 34,700 918 Climbing FlightAware
Wed 10:30:42 PM 42.0870 -89.9660 281° West 395 455 35,200 750 Climbing FlightAware
Wed 10:31:22 PM 42.1010 -90.0620 281° West 402 463 35,700 565 Climbing FlightAware
Wed 10:32:07 PM 42.1170 -90.1750 281° West 403 464 36,000 212 Climbing FlightAware
Wed 10:32:47 PM 42.1290 -90.2680 280° West 404 465 36,000  Level FlightAware
Wed 10:33:32 PM 42.1440 -90.3780 280° West 402 463 36,000  Level FlightAware
Wed 10:34:12 PM 42.1570 -90.4720 281° West 400 460 36,000  Level FlightAware
Wed 10:34:52 PM 42.1710 -90.5730 281° West 398 458 36,000  Level FlightAware
Wed 10:35:37 PM 42.1870 -90.6890 281° West 397 457 36,000  Level FlightAware
Wed 10:36:17 PM 42.1990 -90.7830 280° West 396 456 36,000  Level FlightAware
Wed 10:36:57 PM 42.2110 -90.8740 280° West 400 460 36,000  Level FlightAware
Wed 10:37:47 PM 42.2280 -90.9970 281° West 407 468 36,000  Level FlightAware
Wed 10:38:27 PM 42.2410 -91.1000 280° West 409 471 36,000  Level FlightAware
Wed 10:39:07 PM 42.2550 -91.2050 280° West 410 472 36,000  Level FlightAware
Wed 10:39:52 PM 42.2690 -91.3120 280° West 410 472 36,000  Level FlightAware
Wed 10:40:32 PM 42.2820 -91.4130 280° West 408 470 36,000  Level FlightAware
Wed 10:41:17 PM 42.2960 -91.5280 279° West 407 468 36,000  Level FlightAware
Wed 10:41:57 PM 42.3090 -91.6280 280° West 410 472 36,000  Level FlightAware
Wed 10:42:37 PM 42.3210 -91.7270 279° West 410 472 36,000  Level FlightAware
Wed 10:43:22 PM 42.3350 -91.8430 279° West 411 473 36,000  Level FlightAware
Wed 10:44:02 PM 42.3480 -91.9480 280° West 412 474 36,000  Level FlightAware
Wed 10:44:42 PM 42.3610 -92.0520 280° West 414 476 36,000  Level FlightAware
Wed 10:45:27 PM 42.3740 -92.1570 280° West 413 475 36,000  Level FlightAware
Wed 10:46:07 PM 42.3870 -92.2640 279° West 412 474 36,000  Level FlightAware
Wed 10:46:52 PM 42.4010 -92.3810 279° West 411 473 36,000  Level FlightAware
Wed 10:47:32 PM 42.4130 -92.4820 279° West 409 471 36,000  Level FlightAware
Wed 10:48:12 PM 42.4240 -92.5810 279° West 408 470 36,000  Level FlightAware
Wed 10:48:57 PM 42.4370 -92.6920 279° West 407 468 36,000  Level FlightAware
Wed 10:49:32 PM 42.4470 -92.7800 279° West 406 467 36,000  Level FlightAware
Wed 10:50:17 PM 42.4600 -92.8890 279° West 407 468 36,000  Level FlightAware
Wed 10:50:57 PM 42.4720 -93.0000 278° West 412 474 36,000  Level FlightAware
Wed 10:51:42 PM 42.4830 -93.1020 278° West 413 475 36,000  Level FlightAware
Wed 10:52:27 PM 42.4980 -93.2270 279° West 419 482 36,000  Level FlightAware
Wed 10:53:07 PM 42.5150 -93.3220 284° West 438 504 36,000  Level FlightAware
Wed 10:53:42 PM 42.5350 -93.4040 288° West 438 504 36,000  Level FlightAware
Wed 10:54:32 PM 42.5930 -93.5490 299° West 450 518 36,000  Level FlightAware
Wed 10:55:27 PM 42.6390 -93.6820 295° West 452 520 36,000  Level FlightAware
Wed 10:56:07 PM 42.6690 -93.7700 295° West 452 520 36,000  Level FlightAware
Wed 10:56:47 PM 42.6990 -93.8580 295° West 452 520 36,000  Level FlightAware
Wed 10:57:27 PM 42.7290 -93.9450 295° West 452 520 36,000  Level FlightAware
Wed 10:58:17 PM 42.7670 -94.0550 295° West 452 520 36,000  Level FlightAware
Wed 10:58:57 PM 42.7970 -94.1430 295° West 452 520 36,000  Level FlightAware
Wed 10:59:37 PM 42.8270 -94.2310 295° West 452 520 36,000  Level FlightAware
Wed 11:00:17 PM 42.8570 -94.3190 295° West 452 520 36,000  Level FlightAware
Wed 11:00:57 PM 42.8870 -94.4070 295° West 452 520 36,000  Level FlightAware
Wed 11:01:47 PM 42.9240 -94.5170 295° West 452 520 36,000  Level FlightAware
Wed 11:02:27 PM 42.9540 -94.6050 295° West 452 520 36,000  Level FlightAware
Wed 11:03:07 PM 42.9840 -94.6930 295° West 452 520 36,000  Level FlightAware
Wed 11:03:47 PM 43.0140 -94.7810 295° West 452 520 36,000  Level FlightAware
Wed 11:04:27 PM 43.0440 -94.8690 295° West 452 520 36,000  Level FlightAware
Wed 11:05:02 PM 43.1547 -95.2172 295° West 466 536 36,000  Level Minneapolis Center
Wed 11:06:03 PM 43.2069 -95.3794 294° West 466 536 36,000  Level Minneapolis Center
Wed 11:07:04 PM 43.2597 -95.5428 294° West 467 537 36,000  Level Minneapolis Center
Wed 11:08:05 PM 43.3117 -95.7044 294° West 464 534 36,000  Level Minneapolis Center
Wed 11:09:06 PM 43.3625 -95.8636 294° West 457 526 36,000  Level Minneapolis Center
Wed 11:10:07 PM 43.4142 -96.0244 294° West 458 527 36,000  Level Minneapolis Center
Wed 11:11:08 PM 43.4639 -96.1836 293° West 454 522 36,000  Level Minneapolis Center
Wed 11:12:09 PM 43.5136 -96.3417 293° West 450 518 36,000  Level Minneapolis Center
Wed 11:13:10 PM 43.5628 -96.5006 293° West 450 518 36,000  Level Minneapolis Center
Wed 11:14:11 PM 43.6053 -96.6581 290° West 439 505 36,000  Level Minneapolis Center
Wed 11:15:12 PM 43.5972 -96.8056 266° West 391 450 36,000  Level Minneapolis Center
Wed 11:16:14 PM 43.5861 -96.9511 264° West 383 441 36,000  Level Minneapolis Center
Wed 11:17:15 PM 43.5756 -97.0994 264° West 388 447 36,000  Level Minneapolis Center
Wed 11:18:16 PM 43.5639 -97.2489 264° West 390 449 36,000  Level Minneapolis Center
Wed 11:19:17 PM 43.5506 -97.4317 264° West 398 458 36,000  Level Minneapolis Center
Wed 11:20:18 PM 43.5386 -97.5833 264° West 399 459 36,000  Level Minneapolis Center
Wed 11:21:19 PM 43.5264 -97.7364 264° West 402 463 36,000  Level Minneapolis Center
Wed 11:22:20 PM 43.5144 -97.8925 264° West 408 470 36,000  Level Minneapolis Center
Wed 11:23:21 PM 43.5025 -98.0467 264° West 406 467 36,000  Level Minneapolis Center
Wed 11:24:22 PM 43.4900 -98.2000 264° West 404 465 36,000  Level Minneapolis Center
Wed 11:25:23 PM 43.4761 -98.3536 263° West 405 466 36,000  Level Minneapolis Center
Wed 11:26:24 PM 43.4628 -98.5075 263° West 405 466 36,000  Level Minneapolis Center
Wed 11:27:25 PM 43.4508 -98.6569 264° West 405 466 36,000  Level Minneapolis Center
Wed 11:28:26 PM 43.4367 -98.8106 263° West 405 466 36,000  Level Minneapolis Center
Wed 11:29:27 PM 43.4236 -98.9642 263° West 404 465 36,000  Level Minneapolis Center
Wed 11:30:28 PM 43.4067 -99.1483 263° West 403 464 36,000  Level Minneapolis Center
Wed 11:31:29 PM 43.3919 -99.3000 262° West 401 461 36,000  Level Minneapolis Center
Wed 11:32:31 PM 43.3786 -99.4517 263° West 400 460 36,000  Level Minneapolis Center
Wed 11:33:32 PM 43.3639 -99.6036 262° West 401 461 36,000  Level Minneapolis Center
Wed 11:34:33 PM 43.3494 -99.7583 263° West 403 464 36,000  Level Minneapolis Center
Wed 11:35:34 PM 43.3342 -99.9086 262° West 402 463 36,000  Level Minneapolis Center
Wed 11:36:35 PM 43.3194 -100.0578 262° West 397 457 36,000  Level Minneapolis Center
Wed 11:37:36 PM 43.3047 -100.2036 262° West 392 451 36,000  Level Minneapolis Center
Wed 11:38:37 PM 43.2906 -100.3522 263° West 390 449 36,000  Level Minneapolis Center
Wed 11:39:22 PM 43.2767 -100.4708 261° West 393 452 36,000  Level Denver Center
Wed 11:40:23 PM 43.2628 -100.6169 263° West 388 447 36,000  Level Denver Center
Wed 11:41:24 PM 43.2461 -100.7625 261° West 386 444 36,000  Level Denver Center
Wed 11:42:25 PM 43.2314 -100.9069 262° West 382 440 36,000  Level Denver Center
Wed 11:43:26 PM 43.2150 -101.0519 261° West 382 440 36,000  Level Denver Center
Wed 11:44:27 PM 43.1989 -101.1978 261° West 385 443 36,000 148 Level Denver Center
Wed 11:45:28 PM 43.1833 -101.3439 262° West 387 445 36,300 492 Climbing Denver Center
Wed 11:46:29 PM 43.1667 -101.4933 261° West 394 453 37,000 639 Climbing Denver Center
Wed 11:47:30 PM 43.1489 -101.6453 261° West 403 464 37,600 492 Climbing Denver Center
Wed 11:48:31 PM 43.1306 -101.8153 262° West 409 471 38,000 197 Climbing Denver Center
Wed 11:49:32 PM 43.1131 -101.9606 261° West 406 467 38,000  Level Denver Center
Wed 11:50:33 PM 43.0925 -102.1383 261° West 421 484 38,000  Level Denver Center
Wed 11:56:06 PM 42.9833 -103.0320 261° West 430 495 38,000  Level FlightAware
Wed 11:56:49 PM 42.9686 -103.1470 260° West 430 495 38,000  Level FlightAware
Wed 11:57:20 PM 42.9582 -103.2290 260° West 432 497 38,000  Level FlightAware
Wed 11:57:50 PM 42.9478 -103.3100 260° West 432 497 38,000  Level FlightAware
Wed 11:58:20 PM 42.9373 -103.3910 260° West 432 497 38,000  Level FlightAware
Wed 11:59:00 PM 42.9234 -103.4980 260° West 432 497 38,000  Level FlightAware
Wed 11:59:30 PM 42.9126 -103.5790 260° West 433 498 38,000  Level FlightAware
Thu 12:00:00 AM 42.9019 -103.6590 260° West 433 498 38,000  Level FlightAware
Thu 12:00:30 AM 42.8913 -103.7400 260° West 434 499 38,000  Level FlightAware
Thu 12:01:01 AM 42.8804 -103.8210 260° West 434 499 38,000  Level FlightAware
Thu 12:01:31 AM 42.8695 -103.9030 260° West 435 501 38,000  Level FlightAware
Thu 12:02:01 AM 42.8584 -103.9840 259° West 436 502 38,000  Level FlightAware
Thu 12:02:32 AM 42.8474 -104.0650 260° West 436 502 38,000  Level FlightAware
Thu 12:03:02 AM 42.8363 -104.1470 260° West 436 502 38,000  Level FlightAware
Thu 12:03:32 AM 42.8252 -104.2280 259° West 437 503 38,000  Level FlightAware
Thu 12:04:03 AM 42.8136 -104.3110 259° West 436 502 38,000  Level FlightAware
Thu 12:04:33 AM 42.8021 -104.3930 259° West 435 501 38,000  Level FlightAware
Thu 12:05:05 AM 42.7901 -104.4780 259° West 434 499 38,000  Level FlightAware
Thu 12:05:40 AM 42.7769 -104.5720 259° West 433 498 38,000  Level FlightAware
Thu 12:06:11 AM 42.7655 -104.6540 259° West 433 498 38,000  Level FlightAware
Thu 12:06:53 AM 42.7498 -104.7650 259° West 432 497 38,000  Level FlightAware
Thu 12:07:28 AM 42.7364 -104.8590 259° West 432 497 38,000  Level FlightAware
Thu 12:07:58 AM 42.7247 -104.9400 259° West 432 497 38,000  Level FlightAware
Thu 12:08:29 AM 42.7128 -105.0210 259° West 433 498 38,000  Level FlightAware
Thu 12:08:59 AM 42.7009 -105.1020 259° West 435 501 38,000  Level FlightAware
Thu 12:09:31 AM 42.6886 -105.1870 259° West 436 502 38,000  Level FlightAware
Thu 12:10:04 AM 42.6757 -105.2750 259° West 438 504 38,000  Level FlightAware
Thu 12:10:37 AM 42.6642 -105.3578 259° West 438 504 38,000  Level Salt Center
Thu 12:10:53 AM 42.6594 -105.3831 256° West 439 505 38,000  Level Denver Center
Thu 12:11:54 AM 42.6325 -105.5644 259° West 440 506 38,000  Level Denver Center
Thu 12:17:27 AM 42.4930 -106.4660 259° West 441 507 38,000  Level FlightAware
Thu 12:18:12 AM 42.4740 -106.5760 257° West 441 507 38,000  Level FlightAware
Thu 12:18:52 AM 42.4590 -106.6680 258° West 441 507 38,000  Level FlightAware
Thu 12:19:32 AM 42.4430 -106.7600 257° West 441 507 38,000  Level FlightAware
Thu 12:20:12 AM 42.4280 -106.8510 257° West 441 507 38,000  Level FlightAware
Thu 12:20:52 AM 42.4120 -106.9430 257° West 441 507 38,000  Level FlightAware
Thu 12:21:32 AM 42.3960 -107.0340 257° West 441 507 38,000  Level FlightAware
Thu 12:22:12 AM 42.3810 -107.1260 258° West 441 507 38,000  Level FlightAware
Thu 12:23:02 AM 42.3610 -107.2400 257° West 441 507 38,000  Level FlightAware
Thu 12:23:42 AM 42.3460 -107.3320 258° West 441 507 38,000  Level FlightAware
Thu 12:24:22 AM 42.3300 -107.4230 257° West 441 507 38,000  Level FlightAware
Thu 12:25:02 AM 42.3140 -107.5150 257° West 441 507 38,000  Level FlightAware
Thu 12:25:42 AM 42.2990 -107.6060 257° West 441 507 38,000  Level FlightAware
Thu 12:26:32 AM 42.2790 -107.7200 257° West 441 507 38,000  Level FlightAware
Thu 12:27:12 AM 42.2640 -107.8110 257° West 441 507 38,000  Level FlightAware
Thu 12:27:53 AM 42.2108 -108.1522 257° West 447 514 38,000  Level Salt Center
Thu 12:28:53 AM 42.1842 -108.3072 257° West 446 513 38,000  Level Salt Center
Thu 12:29:54 AM 42.1542 -108.4878 257° West 444 511 38,000  Level Salt Center
Thu 12:30:55 AM 42.1256 -108.6428 256° West 446 513 38,000  Level Salt Center
Thu 12:31:56 AM 42.0975 -108.7967 256° West 446 513 38,000  Level Salt Center
Thu 12:32:57 AM 42.0642 -108.9778 256° West 448 516 38,000  Level Salt Center
Thu 12:33:58 AM 42.0347 -109.1342 256° West 451 519 38,000  Level Salt Center
Thu 12:34:59 AM 42.0056 -109.2908 256° West 453 521 38,000  Level Salt Center
Thu 12:35:59 AM 41.9719 -109.4750 256° West 457 526 38,000  Level Salt Center
Thu 12:37:00 AM 41.9417 -109.6319 256° West 457 526 38,000  Level Salt Center
Thu 12:38:01 AM 41.9061 -109.8147 255° West 457 526 38,000  Level Salt Center
Thu 12:39:02 AM 41.8772 -109.9706 256° West 453 521 38,000  Level Salt Center
Thu 12:45:12 AM 41.6790 -110.9750 256° West 456 525 38,000  Level FlightAware
Thu 12:45:52 AM 41.6560 -111.0880 255° West 458 527 38,000  Level FlightAware
Thu 12:46:37 AM 41.6310 -111.2110 255° West 457 526 38,000  Level FlightAware
Thu 12:47:17 AM 41.6080 -111.3210 254° West 456 525 38,000  Level FlightAware
Thu 12:47:57 AM 41.5850 -111.4300 254° West 455 524 38,000  Level FlightAware
Thu 12:48:42 AM 41.5610 -111.5480 255° West 455 524 38,000  Level FlightAware
Thu 12:49:22 AM 41.5370 -111.6590 254° West 453 521 38,000  Level FlightAware
Thu 12:50:02 AM 41.5150 -111.7650 255° West 448 516 38,000  Level FlightAware
Thu 12:50:47 AM 41.4910 -111.8800 254° West 448 516 38,000  Level FlightAware
Thu 12:51:27 AM 41.4670 -111.9940 254° West 448 516 38,000  Level FlightAware
Thu 12:52:12 AM 41.4420 -112.1120 254° West 449 517 38,000  Level FlightAware
Thu 12:52:52 AM 41.4180 -112.2220 254° West 450 518 38,000  Level FlightAware
Thu 12:53:32 AM 41.3960 -112.3260 254° West 450 518 38,000  Level FlightAware
Thu 12:54:17 AM 41.3700 -112.4470 254° West 453 521 38,000  Level FlightAware
Thu 12:54:57 AM 41.3460 -112.5550 254° West 455 524 38,000  Level FlightAware
Thu 12:55:37 AM 41.3220 -112.6620 253° West 457 526 38,000  Level FlightAware
Thu 12:56:22 AM 41.2960 -112.7830 254° West 459 528 38,000  Level FlightAware
Thu 12:57:02 AM 41.2720 -112.8920 254° West 461 531 38,000  Level FlightAware
Thu 12:57:42 AM 41.2470 -113.0010 253° West 461 531 38,000  Level FlightAware
Thu 12:58:27 AM 41.2200 -113.1230 254° West 465 535 38,000  Level FlightAware
Thu 12:59:07 AM 41.1950 -113.2320 253° West 466 536 38,000  Level FlightAware
Thu 12:59:37 AM 41.1770 -113.3140 254° West 466 536 38,000  Level FlightAware
Thu 01:00:17 AM 41.1520 -113.4220 253° West 466 536 38,000  Level FlightAware
Thu 01:01:02 AM 41.1240 -113.5450 253° West 462 532 38,000  Level FlightAware
Thu 01:01:47 AM 41.0960 -113.6690 253° West 464 534 38,000  Level FlightAware
Thu 01:02:27 AM 41.0710 -113.7780 253° West 463 533 38,000  Level FlightAware
Thu 01:03:07 AM 41.0460 -113.8870 253° West 463 533 38,000  Level FlightAware
Thu 01:03:52 AM 41.0180 -114.0070 253° West 465 535 38,000  Level FlightAware
Thu 01:04:32 AM 40.9910 -114.1200 252° West 463 533 38,000  Level FlightAware
Thu 01:05:12 AM 40.9690 -114.2160 253° West 463 533 38,000  Level FlightAware
Thu 01:05:52 AM 40.9480 -114.3080 253° West 463 533 38,000  Level FlightAware
Thu 01:06:32 AM 40.9260 -114.4000 252° West 463 533 38,000  Level FlightAware
Thu 01:07:22 AM 40.9000 -114.5150 253° West 463 533 38,000  Level FlightAware
Thu 01:08:02 AM 40.8780 -114.6070 252° West 463 533 38,000  Level FlightAware
Thu 01:08:42 AM 40.8570 -114.6990 253° West 463 533 38,000  Level FlightAware
Thu 01:09:22 AM 40.8360 -114.7910 253° West 463 533 38,000  Level FlightAware
Thu 01:10:12 AM 40.8090 -114.9070 253° West 463 533 38,000  Level FlightAware
Thu 01:10:52 AM 40.7880 -114.9990 253° West 463 533 38,000  Level FlightAware
Thu 01:11:32 AM 40.7670 -115.0900 253° West 463 533 38,000  Level FlightAware
Thu 01:12:12 AM 40.7450 -115.1820 253° West 463 533 38,000  Level FlightAware
Thu 01:12:52 AM 40.7240 -115.2740 253° West 463 533 38,000  Level FlightAware
Thu 01:13:42 AM 40.6970 -115.3890 253° West 463 533 38,000  Level FlightAware
Thu 01:14:22 AM 40.6760 -115.4810 253° West 463 533 38,000  Level FlightAware
Thu 01:15:23 AM 40.5689 -115.8547 253° West 449 517 38,000  Level Oakland Center
Thu 01:16:23 AM 40.5314 -116.0042 252° West 449 517 38,000  Level Oakland Center
Thu 01:17:24 AM 40.4931 -116.1533 251° West 449 517 38,000  Level Oakland Center
Thu 01:18:25 AM 40.4547 -116.3014 251° West 448 516 38,000  Level Oakland Center
Thu 01:19:25 AM 40.4108 -116.4747 252° West 447 514 38,000  Level Oakland Center
Thu 01:20:26 AM 40.3692 -116.6319 251° West 444 511 38,000  Level Oakland Center
Thu 01:21:27 AM 40.3289 -116.7858 251° West 446 513 38,000  Level Oakland Center
Thu 01:22:27 AM 40.2883 -116.9397 251° West 447 514 38,000  Level Oakland Center
Thu 01:23:28 AM 40.2472 -117.0964 251° West 445 512 38,000  Level Oakland Center
Thu 01:24:29 AM 40.2078 -117.2436 251° West 446 513 38,000  Level Oakland Center
Thu 01:25:29 AM 40.1678 -117.3994 251° West 445 512 38,000  Level Oakland Center
Thu 01:26:30 AM 40.1533 -117.5594 263° West 442 509 38,000  Level Oakland Center
Thu 01:27:31 AM 40.1394 -117.7189 264° West 443 510 38,000  Level Oakland Center
Thu 01:28:32 AM 40.1231 -117.8767 262° West 441 507 38,000 -496 Level Oakland Center
Thu 01:29:32 AM 40.1089 -118.0294 263° West 430 495 37,000 -2,132 Descending Oakland Center
Thu 01:30:33 AM 40.0944 -118.1769 263° West 416 479 33,700 -3,174 Descending Oakland Center
Thu 01:31:33 AM 40.0783 -118.3308 262° West 425 489 30,600 -2,826 Descending Oakland Center
Thu 01:32:34 AM 40.0614 -118.4844 262° West 428 493 28,000 -2,459 Descending Oakland Center
Thu 01:33:35 AM 40.0461 -118.6353 263° West 423 487 25,600 -2,628 Descending Oakland Center
Thu 01:34:35 AM 40.0275 -118.8092 262° West 408 470 22,700 -2,579 Descending Oakland Center
Thu 01:35:36 AM 40.0128 -118.9506 262° West 399 459 20,400 -2,213 Descending Oakland Center
Thu 01:36:37 AM 39.9978 -119.0853 262° West 384 442 18,200 -1,636 Descending Oakland Center
Thu 01:37:37 AM 39.9831 -119.2169 262° West 372 428 17,100 -1,388 Descending Oakland Center
Thu 01:38:38 AM 39.9347 -119.3197 239° Southwest 348 400 15,400 -1,454 Descending Oakland Center
Thu 01:44:42 AM 39.6470 -119.7670 239° Southwest 184 212 6,800 -1,393 Descending FlightAware
Thu 01:44:57 AM 39.6340 -119.7670 180° South 176 203 6,600 -1,050 Descending FlightAware
Thu 01:45:22 AM 39.6120 -119.7670 180° South 169 194 6,100 -1,200 Descending FlightAware
Thu 01:45:52 AM 39.5850 -119.7660 178° South 166 191 5,500 -646 Descending FlightAware
Thu 01:46:27 AM 39.5610 -119.7660 180° South 165 190 5,400 2,400 Descending FlightAware
Thu 01:46:37 AM 39.6690 -119.7600 North 191 220 7,300 3,257 Climbing FlightAware
Thu 01:47:02 AM 39.6570 -119.7800 232° Southwest 191 220 7,300 -1,000 Level FlightAware
Thu 01:47:07 AM 39.6470 -119.7670 135° Southeast 188 216 6,800 -1,050 Descending FlightAware
Thu 01:47:42 AM 39.6340 -119.7670 180° South 176 203 6,600 -400 Descending FlightAware
Thu 01:48:07 AM 39.6300 -119.7670 180° South 174 200 6,400 -240 Descending FlightAware
Thu 01:48:32 AM 39.6100 -119.7670 180° South 174 200 6,400  Level FlightAware

Login

Don't have an account? Register now (free) for customized features, flight alerts, and more!